Terminal Aerodrome Forecast
Issued by NWS

Current Version | Previous Version | Graphics & Text | Print | Product List | Glossary On
Versions: 1 2 3 4 5 6 7 8 9 10 11 12 13 14 15 16 17
000
FTUS41 KPBZ 221900 AAA
TAFMGW
TAF AMD
KMGW 221922Z 2219/2318 22008KT P6SM -SHRA SCT020 SCT090
     FM222000 25008G16KT P6SM VCTS SCT008 BKN030CB
      TEMPO 2220/2221 6SM -SHRA
     FM222300 30012G22KT P6SM BKN035
     FM230300 33007KT P6SM BKN025
     FM231500 34010G18KT P6SM BKN040=

USA.gov is the U.S. government's official web portal to all federal, state and local government web resources and services.